sensor_id;sensor_type;location;lat;lon;timestamp;pressure;altitude;pressure_sealevel;temperature;humidity
55990;BME280;41875;55.806;38.082;2023-03-11T00:00:03;98893.47;;;-3.65;47.85
55990;BME280;41875;55.806;38.082;2023-03-11T00:02:33;98895.66;;;-3.74;48.05
55990;BME280;41875;55.806;38.082;2023-03-11T00:05:01;98892.03;;;-3.55;47.97
55990;BME280;41875;55.806;38.082;2023-03-11T00:07:29;98891.13;;;-3.54;48.59
55990;BME280;41875;55.806;38.082;2023-03-11T00:09:57;98886.75;;;-3.38;48.90
55990;BME280;41875;55.806;38.082;2023-03-11T00:12:26;98882.31;;;-3.19;48.07
55990;BME280;41875;55.806;38.082;2023-03-11T00:14:55;98875.91;;;-3.28;48.65
55990;BME280;41875;55.806;38.082;2023-03-11T00:17:23;98875.47;;;-3.37;49.06
55990;BME280;41875;55.806;38.082;2023-03-11T00:19:51;98876.94;;;-3.47;48.83
55990;BME280;41875;55.806;38.082;2023-03-11T00:22:20;98874.13;;;-3.28;49.16
55990;BME280;41875;55.806;38.082;2023-03-11T00:24:48;98872.56;;;-3.30;48.82
55990;BME280;41875;55.806;38.082;2023-03-11T00:27:16;98866.53;;;-3.31;49.46
55990;BME280;41875;55.806;38.082;2023-03-11T00:29:44;98865.44;;;-3.27;49.01
55990;BME280;41875;55.806;38.082;2023-03-11T00:32:14;98862.31;;;-3.17;48.70
55990;BME280;41875;55.806;38.082;2023-03-11T00:34:42;98871.16;;;-3.06;48.38
55990;BME280;41875;55.806;38.082;2023-03-11T00:37:10;98873.84;;;-3.07;48.39
55990;BME280;41875;55.806;38.082;2023-03-11T00:39:38;98868.50;;;-3.04;47.92
55990;BME280;41875;55.806;38.082;2023-03-11T00:42:09;98869.88;;;-2.98;48.30
55990;BME280;41875;55.806;38.082;2023-03-11T00:44:37;98882.00;;;-2.99;47.60
55990;BME280;41875;55.806;38.082;2023-03-11T00:47:06;98879.78;;;-3.05;47.33
55990;BME280;41875;55.806;38.082;2023-03-11T00:49:35;98880.59;;;-3.04;47.92
55990;BME280;41875;55.806;38.082;2023-03-11T00:52:04;98872.81;;;-3.04;48.15
55990;BME280;41875;55.806;38.082;2023-03-11T00:54:32;98877.56;;;-2.97;47.67
55990;BME280;41875;55.806;38.082;2023-03-11T00:57:00;98876.94;;;-3.16;47.92
55990;BME280;41875;55.806;38.082;2023-03-11T00:59:28;98872.03;;;-3.21;48.28
55990;BME280;41875;55.806;38.082;2023-03-11T01:01:57;98874.13;;;-3.28;48.40
55990;BME280;41875;55.806;38.082;2023-03-11T01:04:25;98881.25;;;-3.31;48.85
55990;BME280;41875;55.806;38.082;2023-03-11T01:06:55;98877.00;;;-3.32;48.53
55990;BME280;41875;55.806;38.082;2023-03-11T01:09:23;98881.16;;;-3.30;48.71
55990;BME280;41875;55.806;38.082;2023-03-11T01:11:51;98874.88;;;-3.26;48.69
55990;BME280;41875;55.806;38.082;2023-03-11T01:14:20;98871.53;;;-3.28;48.49
55990;BME280;41875;55.806;38.082;2023-03-11T01:16:48;98878.56;;;-3.30;48.91
55990;BME280;41875;55.806;38.082;2023-03-11T01:19:16;98873.38;;;-3.30;49.05
55990;BME280;41875;55.806;38.082;2023-03-11T01:21:45;98877.31;;;-3.23;48.84
55990;BME280;41875;55.806;38.082;2023-03-11T01:24:15;98890.59;;;-3.29;48.91
55990;BME280;41875;55.806;38.082;2023-03-11T01:26:43;98891.38;;;-3.43;48.86
55990;BME280;41875;55.806;38.082;2023-03-11T01:29:11;98887.34;;;-3.32;49.02
55990;BME280;41875;55.806;38.082;2023-03-11T01:31:40;98876.00;;;-3.46;48.96
55990;BME280;41875;55.806;38.082;2023-03-11T01:34:08;98889.78;;;-3.45;49.19
55990;BME280;41875;55.806;38.082;2023-03-11T01:36:36;98881.25;;;-3.47;49.60
55990;BME280;41875;55.806;38.082;2023-03-11T01:39:05;98878.25;;;-3.40;49.69
55990;BME280;41875;55.806;38.082;2023-03-11T01:41:34;98888.47;;;-3.53;49.34
55990;BME280;41875;55.806;38.082;2023-03-11T01:44:03;98883.78;;;-3.62;49.79
55990;BME280;41875;55.806;38.082;2023-03-11T01:46:36;98874.59;;;-3.68;50.04
55990;BME280;41875;55.806;38.082;2023-03-11T01:49:04;98879.78;;;-3.68;50.31
55990;BME280;41875;55.806;38.082;2023-03-11T01:51:35;98883.38;;;-3.70;49.96
55990;BME280;41875;55.806;38.082;2023-03-11T01:54:06;98883.44;;;-3.56;50.00
55990;BME280;41875;55.806;38.082;2023-03-11T01:56:38;98881.19;;;-3.62;50.18
55990;BME280;41875;55.806;38.082;2023-03-11T01:59:09;98870.75;;;-3.76;50.57
55990;BME280;41875;55.806;38.082;2023-03-11T02:01:40;98867.19;;;-3.74;50.45
55990;BME280;41875;55.806;38.082;2023-03-11T02:04:12;98880.28;;;-3.61;50.49
55990;BME280;41875;55.806;38.082;2023-03-11T02:06:40;98875.44;;;-3.67;50.39
55990;BME280;41875;55.806;38.082;2023-03-11T02:09:10;98882.09;;;-3.63;50.55
55990;BME280;41875;55.806;38.082;2023-03-11T02:11:40;98883.47;;;-3.72;50.26
55990;BME280;41875;55.806;38.082;2023-03-11T02:14:08;98879.03;;;-3.86;51.09
55990;BME280;41875;55.806;38.082;2023-03-11T02:16:37;98878.88;;;-3.83;51.08
55990;BME280;41875;55.806;38.082;2023-03-11T02:19:07;98872.00;;;-4.00;51.17
55990;BME280;41875;55.806;38.082;2023-03-11T02:21:39;98871.59;;;-3.92;51.19
55990;BME280;41875;55.806;38.082;2023-03-11T02:24:10;98875.28;;;-3.96;51.54
55990;BME280;41875;55.806;38.082;2023-03-11T02:29:11;98885.84;;;-4.01;51.48
55990;BME280;41875;55.806;38.082;2023-03-11T02:31:41;98879.19;;;-3.89;51.28
55990;BME280;41875;55.806;38.082;2023-03-11T02:34:12;98883.47;;;-3.88;51.28
55990;BME280;41875;55.806;38.082;2023-03-11T02:36:41;98879.13;;;-3.87;51.45
55990;BME280;41875;55.806;38.082;2023-03-11T02:39:12;98871.19;;;-3.84;51.12
55990;BME280;41875;55.806;38.082;2023-03-11T02:41:42;98872.84;;;-3.99;51.80
55990;BME280;41875;55.806;38.082;2023-03-11T02:44:12;98875.78;;;-3.89;52.07
55990;BME280;41875;55.806;38.082;2023-03-11T02:46:42;98866.41;;;-3.92;51.60
55990;BME280;41875;55.806;38.082;2023-03-11T02:49:11;98872.28;;;-3.88;51.29
55990;BME280;41875;55.806;38.082;2023-03-11T02:51:41;98871.38;;;-3.87;51.56
55990;BME280;41875;55.806;38.082;2023-03-11T02:54:09;98863.00;;;-3.92;51.51
55990;BME280;41875;55.806;38.082;2023-03-11T02:56:37;98874.38;;;-3.95;51.65
55990;BME280;41875;55.806;38.082;2023-03-11T02:59:05;98875.28;;;-3.80;51.25
55990;BME280;41875;55.806;38.082;2023-03-11T03:01:35;98871.03;;;-3.97;51.62
55990;BME280;41875;55.806;38.082;2023-03-11T03:04:04;98869.34;;;-3.98;51.65
55990;BME280;41875;55.806;38.082;2023-03-11T03:06:32;98873.69;;;-3.99;52.15
55990;BME280;41875;55.806;38.082;2023-03-11T03:09:00;98883.72;;;-3.92;52.02
55990;BME280;41875;55.806;38.082;2023-03-11T03:11:29;98882.03;;;-3.93;51.91
55990;BME280;41875;55.806;38.082;2023-03-11T03:13:57;98875.03;;;-3.91;51.84
55990;BME280;41875;55.806;38.082;2023-03-11T03:16:26;98870.19;;;-3.98;51.78
55990;BME280;41875;55.806;38.082;2023-03-11T03:18:56;98861.66;;;-4.16;52.40
55990;BME280;41875;55.806;38.082;2023-03-11T03:21:24;98863.59;;;-4.19;52.74
55990;BME280;41875;55.806;38.082;2023-03-11T03:23:53;98858.38;;;-4.35;53.12
55990;BME280;41875;55.806;38.082;2023-03-11T03:26:21;98872.72;;;-4.30;53.53
55990;BME280;41875;55.806;38.082;2023-03-11T03:28:50;98875.16;;;-4.26;53.10
55990;BME280;41875;55.806;38.082;2023-03-11T03:31:18;98877.78;;;-4.10;53.24
55990;BME280;41875;55.806;38.082;2023-03-11T03:33:46;98871.91;;;-4.14;52.87
55990;BME280;41875;55.806;38.082;2023-03-11T03:36:16;98881.78;;;-4.05;52.73
55990;BME280;41875;55.806;38.082;2023-03-11T03:38:52;98877.44;;;-4.04;52.78
55990;BME280;41875;55.806;38.082;2023-03-11T03:41:21;98879.00;;;-4.18;53.32
55990;BME280;41875;55.806;38.082;2023-03-11T03:43:49;98868.47;;;-4.31;53.53
55990;BME280;41875;55.806;38.082;2023-03-11T03:46:17;98875.59;;;-4.18;53.52
55990;BME280;41875;55.806;38.082;2023-03-11T03:48:48;98874.41;;;-4.29;53.76
55990;BME280;41875;55.806;38.082;2023-03-11T03:51:17;98874.34;;;-4.27;53.96
55990;BME280;41875;55.806;38.082;2023-03-11T03:54:12;98875.50;;;-4.17;53.52
55990;BME280;41875;55.806;38.082;2023-03-11T03:56:41;98873.94;;;-4.03;53.56
55990;BME280;41875;55.806;38.082;2023-03-11T03:59:10;98871.03;;;-3.97;53.50
55990;BME280;41875;55.806;38.082;2023-03-11T04:01:44;98870.78;;;-3.92;53.38
55990;BME280;41875;55.806;38.082;2023-03-11T04:04:12;98869.44;;;-3.84;53.20
55990;BME280;41875;55.806;38.082;2023-03-11T04:06:42;98861.44;;;-3.95;53.38
55990;BME280;41875;55.806;38.082;2023-03-11T04:09:11;98868.59;;;-3.68;53.67
55990;BME280;41875;55.806;38.082;2023-03-11T04:11:39;98867.75;;;-4.01;53.80
55990;BME280;41875;55.806;38.082;2023-03-11T04:14:08;98858.00;;;-3.63;53.79
55990;BME280;41875;55.806;38.082;2023-03-11T04:16:43;98866.84;;;-3.68;53.66
55990;BME280;41875;55.806;38.082;2023-03-11T04:19:13;98866.28;;;-3.73;53.61
55990;BME280;41875;55.806;38.082;2023-03-11T04:21:43;98853.88;;;-3.68;53.92
55990;BME280;41875;55.806;38.082;2023-03-11T04:24:11;98860.56;;;-3.63;53.88
55990;BME280;41875;55.806;38.082;2023-03-11T04:26:40;98856.66;;;-3.55;53.65
55990;BME280;41875;55.806;38.082;2023-03-11T04:29:12;98855.72;;;-3.54;54.12
55990;BME280;41875;55.806;38.082;2023-03-11T04:31:46;98850.06;;;-3.60;54.49
55990;BME280;41875;55.806;38.082;2023-03-11T04:34:15;98847.97;;;-3.54;53.90
55990;BME280;41875;55.806;38.082;2023-03-11T04:36:44;98846.72;;;-3.62;54.57
55990;BME280;41875;55.806;38.082;2023-03-11T04:39:16;98835.19;;;-3.57;54.41
55990;BME280;41875;55.806;38.082;2023-03-11T04:41:45;98838.53;;;-3.55;55.25
55990;BME280;41875;55.806;38.082;2023-03-11T04:44:17;98830.41;;;-3.48;55.46
55990;BME280;41875;55.806;38.082;2023-03-11T04:46:47;98826.97;;;-3.33;55.23
55990;BME280;41875;55.806;38.082;2023-03-11T04:49:16;98820.97;;;-3.49;55.02
55990;BME280;41875;55.806;38.082;2023-03-11T04:51:45;98831.13;;;-3.46;55.84
55990;BME280;41875;55.806;38.082;2023-03-11T04:54:17;98827.25;;;-3.23;55.19
55990;BME280;41875;55.806;38.082;2023-03-11T04:56:45;98823.91;;;-3.25;55.63
55990;BME280;41875;55.806;38.082;2023-03-11T04:59:17;98826.31;;;-2.92;54.83
55990;BME280;41875;55.806;38.082;2023-03-11T05:01:47;98825.69;;;-2.81;54.70
55990;BME280;41875;55.806;38.082;2023-03-11T05:04:16;98826.44;;;-3.09;55.16
55990;BME280;41875;55.806;38.082;2023-03-11T05:06:45;98826.47;;;-2.95;55.29
55990;BME280;41875;55.806;38.082;2023-03-11T05:09:16;98818.78;;;-3.11;55.28
55990;BME280;41875;55.806;38.082;2023-03-11T05:11:45;98818.13;;;-3.00;55.54
55990;BME280;41875;55.806;38.082;2023-03-11T05:14:16;98825.94;;;-2.71;55.12
55990;BME280;41875;55.806;38.082;2023-03-11T05:16:45;98823.09;;;-2.81;54.98
55990;BME280;41875;55.806;38.082;2023-03-11T05:19:13;98819.06;;;-2.86;54.97
55990;BME280;41875;55.806;38.082;2023-03-11T05:22:23;98814.53;;;-2.97;55.31
55990;BME280;41875;55.806;38.082;2023-03-11T05:24:52;98818.84;;;-3.12;56.28
55990;BME280;41875;55.806;38.082;2023-03-11T05:27:21;98821.41;;;-2.82;55.33
55990;BME280;41875;55.806;38.082;2023-03-11T05:29:53;98821.25;;;-3.24;56.48
55990;BME280;41875;55.806;38.082;2023-03-11T05:32:23;98815.50;;;-2.69;54.86
55990;BME280;41875;55.806;38.082;2023-03-11T05:34:52;98804.25;;;-2.84;55.33
55990;BME280;41875;55.806;38.082;2023-03-11T05:37:20;98810.84;;;-2.79;55.67
55990;BME280;41875;55.806;38.082;2023-03-11T05:39:52;98804.00;;;-2.65;55.20
55990;BME280;41875;55.806;38.082;2023-03-11T05:42:21;98797.53;;;-2.72;55.43
55990;BME280;41875;55.806;38.082;2023-03-11T05:44:52;98811.50;;;-2.75;55.12
55990;BME280;41875;55.806;38.082;2023-03-11T05:47:22;98804.72;;;-2.49;55.01
55990;BME280;41875;55.806;38.082;2023-03-11T05:49:51;98798.59;;;-2.33;54.41
55990;BME280;41875;55.806;38.082;2023-03-11T05:52:20;98809.34;;;-2.25;54.45
55990;BME280;41875;55.806;38.082;2023-03-11T05:54:50;98800.81;;;-2.12;54.06
55990;BME280;41875;55.806;38.082;2023-03-11T05:57:24;98800.66;;;-1.96;54.36
55990;BME280;41875;55.806;38.082;2023-03-11T05:59:53;98807.72;;;-1.98;54.00
55990;BME280;41875;55.806;38.082;2023-03-11T06:02:21;98805.31;;;-2.02;53.85
55990;BME280;41875;55.806;38.082;2023-03-11T06:04:50;98808.59;;;-2.27;54.43
55990;BME280;41875;55.806;38.082;2023-03-11T06:07:18;98797.69;;;-1.63;54.16
55990;BME280;41875;55.806;38.082;2023-03-11T06:09:48;98800.97;;;-1.33;52.72
55990;BME280;41875;55.806;38.082;2023-03-11T06:12:17;98807.13;;;-1.21;52.69
55990;BME280;41875;55.806;38.082;2023-03-11T06:15:12;98791.34;;;-1.05;52.15
55990;BME280;41875;55.806;38.082;2023-03-11T06:17:41;98798.63;;;-0.72;51.06
55990;BME280;41875;55.806;38.082;2023-03-11T06:20:10;98802.84;;;-2.18;54.34
55990;BME280;41875;55.806;38.082;2023-03-11T06:22:40;98789.97;;;-1.64;54.22
55990;BME280;41875;55.806;38.082;2023-03-11T06:25:08;98796.13;;;-1.12;52.72
55990;BME280;41875;55.806;38.082;2023-03-11T06:27:40;98793.44;;;-1.11;52.09
55990;BME280;41875;55.806;38.082;2023-03-11T06:30:12;98801.72;;;-1.05;53.01
55990;BME280;41875;55.806;38.082;2023-03-11T06:32:49;98798.50;;;-0.44;51.38
55990;BME280;41875;55.806;38.082;2023-03-11T06:35:18;98801.22;;;-0.85;53.14
55990;BME280;41875;55.806;38.082;2023-03-11T06:37:46;98799.19;;;-0.17;50.76
55990;BME280;41875;55.806;38.082;2023-03-11T06:40:14;98806.25;;;-0.19;50.98
55990;BME280;41875;55.806;38.082;2023-03-11T06:42:46;98803.69;;;0.06;50.35
55990;BME280;41875;55.806;38.082;2023-03-11T06:45:18;98801.66;;;-0.15;50.67
55990;BME280;41875;55.806;38.082;2023-03-11T06:47:48;98784.38;;;-0.53;51.53
55990;BME280;41875;55.806;38.082;2023-03-11T06:50:16;98783.97;;;-0.73;52.13
55990;BME280;41875;55.806;38.082;2023-03-11T06:52:45;98791.97;;;-0.89;53.00
55990;BME280;41875;55.806;38.082;2023-03-11T06:55:13;98788.94;;;-0.57;52.46
55990;BME280;41875;55.806;38.082;2023-03-11T06:57:41;98783.88;;;-0.97;53.38
55990;BME280;41875;55.806;38.082;2023-03-11T07:00:12;98770.34;;;-0.77;53.20
55990;BME280;41875;55.806;38.082;2023-03-11T07:02:47;98776.69;;;-0.81;52.74
55990;BME280;41875;55.806;38.082;2023-03-11T07:05:16;98768.56;;;-1.15;53.86
55990;BME280;41875;55.806;38.082;2023-03-11T07:07:47;98771.16;;;-1.15;54.18
55990;BME280;41875;55.806;38.082;2023-03-11T07:10:15;98760.66;;;-0.74;52.90
55990;BME280;41875;55.806;38.082;2023-03-11T07:12:44;98775.19;;;-0.46;51.72
55990;BME280;41875;55.806;38.082;2023-03-11T07:15:13;98764.28;;;-0.90;53.08
55990;BME280;41875;55.806;38.082;2023-03-11T07:17:41;98772.19;;;-0.66;52.43
55990;BME280;41875;55.806;38.082;2023-03-11T07:20:11;98769.91;;;-1.09;53.55
55990;BME280;41875;55.806;38.082;2023-03-11T07:22:40;98771.81;;;-0.85;53.21
55990;BME280;41875;55.806;38.082;2023-03-11T07:25:08;98764.81;;;-0.98;53.43
55990;BME280;41875;55.806;38.082;2023-03-11T07:27:37;98765.34;;;-1.05;53.29
55990;BME280;41875;55.806;38.082;2023-03-11T07:30:06;98761.63;;;-1.14;53.77
55990;BME280;41875;55.806;38.082;2023-03-11T07:32:34;98771.28;;;-1.03;53.74
55990;BME280;41875;55.806;38.082;2023-03-11T07:35:03;98754.41;;;-0.98;53.24
55990;BME280;41875;55.806;38.082;2023-03-11T07:37:34;98764.00;;;-1.11;53.98
55990;BME280;41875;55.806;38.082;2023-03-11T07:40:03;98761.09;;;-0.81;53.25
55990;BME280;41875;55.806;38.082;2023-03-11T07:42:31;98754.22;;;-0.69;52.57
55990;BME280;41875;55.806;38.082;2023-03-11T07:45:00;98763.25;;;-0.49;52.12
55990;BME280;41875;55.806;38.082;2023-03-11T07:47:28;98744.72;;;-0.20;52.09
55990;BME280;41875;55.806;38.082;2023-03-11T07:49:57;98740.81;;;-0.38;52.79
55990;BME280;41875;55.806;38.082;2023-03-11T07:52:28;98748.91;;;-0.67;52.77
55990;BME280;41875;55.806;38.082;2023-03-11T07:54:58;98739.19;;;-0.15;52.02
55990;BME280;41875;55.806;38.082;2023-03-11T07:57:26;98729.84;;;-0.68;52.86
55990;BME280;41875;55.806;38.082;2023-03-11T07:59:56;98727.50;;;-0.97;53.87
55990;BME280;41875;55.806;38.082;2023-03-11T08:02:37;98725.00;;;-0.85;53.47
55990;BME280;41875;55.806;38.082;2023-03-11T08:05:05;98720.94;;;-0.89;53.50
55990;BME280;41875;55.806;38.082;2023-03-11T08:07:34;98716.03;;;-0.81;52.87
55990;BME280;41875;55.806;38.082;2023-03-11T08:10:04;98715.78;;;-0.28;52.45
55990;BME280;41875;55.806;38.082;2023-03-11T08:12:32;98715.38;;;-0.22;51.47
55990;BME280;41875;55.806;38.082;2023-03-11T08:15:00;98714.59;;;0.13;50.88
55990;BME280;41875;55.806;38.082;2023-03-11T08:17:29;98716.31;;;-0.60;52.08
55990;BME280;41875;55.806;38.082;2023-03-11T08:19:57;98708.34;;;-0.08;51.79
55990;BME280;41875;55.806;38.082;2023-03-11T08:22:25;98701.19;;;-0.92;52.44
55990;BME280;41875;55.806;38.082;2023-03-11T08:24:53;98690.56;;;-0.89;54.32
55990;BME280;41875;55.806;38.082;2023-03-11T08:27:23;98686.38;;;-0.41;53.02
55990;BME280;41875;55.806;38.082;2023-03-11T08:29:52;98687.88;;;-1.00;53.60
55990;BME280;41875;55.806;38.082;2023-03-11T08:32:20;98679.06;;;-1.11;55.00
55990;BME280;41875;55.806;38.082;2023-03-11T08:34:48;98673.19;;;-0.51;53.55
55990;BME280;41875;55.806;38.082;2023-03-11T08:37:16;98676.19;;;0.04;51.91
55990;BME280;41875;55.806;38.082;2023-03-11T08:39:44;98667.06;;;-0.26;52.40
55990;BME280;41875;55.806;38.082;2023-03-11T08:42:13;98664.72;;;-0.66;53.89
55990;BME280;41875;55.806;38.082;2023-03-11T08:44:43;98662.50;;;-0.47;53.36
55990;BME280;41875;55.806;38.082;2023-03-11T08:47:11;98662.59;;;-0.48;53.75
55990;BME280;41875;55.806;38.082;2023-03-11T08:49:39;98665.03;;;-0.34;53.18
55990;BME280;41875;55.806;38.082;2023-03-11T08:52:07;98645.28;;;0.35;51.80
55990;BME280;41875;55.806;38.082;2023-03-11T08:54:36;98655.28;;;-0.19;52.51
55990;BME280;41875;55.806;38.082;2023-03-11T08:57:04;98637.59;;;-0.02;52.31
55990;BME280;41875;55.806;38.082;2023-03-11T08:59:32;98635.56;;;0.49;51.07
55990;BME280;41875;55.806;38.082;2023-03-11T09:02:02;98653.38;;;-0.65;53.68
55990;BME280;41875;55.806;38.082;2023-03-11T09:04:30;98646.13;;;0.70;51.73
55990;BME280;41875;55.806;38.082;2023-03-11T09:06:59;98635.47;;;1.18;50.10
55990;BME280;41875;55.806;38.082;2023-03-11T09:09:27;98655.63;;;0.59;50.75
55990;BME280;41875;55.806;38.082;2023-03-11T09:11:55;98636.28;;;0.51;52.02
55990;BME280;41875;55.806;38.082;2023-03-11T09:14:24;98642.03;;;0.90;50.98
55990;BME280;41875;55.806;38.082;2023-03-11T09:16:52;98646.47;;;0.42;52.46
55990;BME280;41875;55.806;38.082;2023-03-11T09:19:23;98634.16;;;1.13;50.59
55990;BME280;41875;55.806;38.082;2023-03-11T09:21:51;98631.78;;;0.41;51.81
55990;BME280;41875;55.806;38.082;2023-03-11T09:24:19;98634.38;;;-0.06;52.70
55990;BME280;41875;55.806;38.082;2023-03-11T09:26:47;98628.66;;;0.13;52.63
55990;BME280;41875;55.806;38.082;2023-03-11T09:29:15;98621.00;;;-0.37;53.94
55990;BME280;41875;55.806;38.082;2023-03-11T09:31:44;98625.16;;;-0.58;54.20
55990;BME280;41875;55.806;38.082;2023-03-11T09:34:12;98624.81;;;-0.78;54.52
55990;BME280;41875;55.806;38.082;2023-03-11T09:36:43;98620.66;;;-0.81;54.19
55990;BME280;41875;55.806;38.082;2023-03-11T09:39:11;98618.41;;;-0.98;55.07
55990;BME280;41875;55.806;38.082;2023-03-11T09:41:40;98610.34;;;-1.06;55.43
55990;BME280;41875;55.806;38.082;2023-03-11T09:44:26;98616.94;;;-0.89;55.03
55990;BME280;41875;55.806;38.082;2023-03-11T09:49:43;98599.56;;;-0.89;56.06
55990;BME280;41875;55.806;38.082;2023-03-11T09:52:14;98602.56;;;-0.34;54.04
55990;BME280;41875;55.806;38.082;2023-03-11T09:54:44;98594.63;;;-0.08;53.36
55990;BME280;41875;55.806;38.082;2023-03-11T09:57:15;98595.63;;;0.25;52.77
55990;BME280;41875;55.806;38.082;2023-03-11T09:59:44;98594.31;;;0.20;52.97
55990;BME280;41875;55.806;38.082;2023-03-11T10:02:14;98590.09;;;0.41;52.62
55990;BME280;41875;55.806;38.082;2023-03-11T10:04:44;98588.53;;;0.27;52.54
55990;BME280;41875;55.806;38.082;2023-03-11T10:07:18;98588.59;;;0.03;52.94
55990;BME280;41875;55.806;38.082;2023-03-11T10:09:50;98590.97;;;0.06;53.20
55990;BME280;41875;55.806;38.082;2023-03-11T10:12:24;98586.13;;;0.02;53.90
55990;BME280;41875;55.806;38.082;2023-03-11T10:15:00;98581.66;;;-0.32;53.23
55990;BME280;41875;55.806;38.082;2023-03-11T10:17:40;98581.34;;;-0.52;54.11
55990;BME280;41875;55.806;38.082;2023-03-11T10:20:14;98568.53;;;-0.19;54.15
55990;BME280;41875;55.806;38.082;2023-03-11T10:22:50;98580.56;;;-0.41;54.29
55990;BME280;41875;55.806;38.082;2023-03-11T10:25:22;98567.59;;;-0.18;54.31
55990;BME280;41875;55.806;38.082;2023-03-11T10:27:52;98559.66;;;-0.28;53.73
55990;BME280;41875;55.806;38.082;2023-03-11T10:30:23;98559.53;;;-0.62;54.51
55990;BME280;41875;55.806;38.082;2023-03-11T10:32:53;98549.38;;;-0.54;54.64
55990;BME280;41875;55.806;38.082;2023-03-11T10:35:27;98541.53;;;-0.65;55.00
55990;BME280;41875;55.806;38.082;2023-03-11T10:37:58;98529.84;;;-0.24;54.26
55990;BME280;41875;55.806;38.082;2023-03-11T10:40:31;98529.16;;;-0.86;55.29
55990;BME280;41875;55.806;38.082;2023-03-11T10:43:00;98521.16;;;-0.71;55.50
55990;BME280;41875;55.806;38.082;2023-03-11T10:45:32;98496.44;;;-0.77;55.34
55990;BME280;41875;55.806;38.082;2023-03-11T10:48:01;98503.69;;;-0.94;56.10
55990;BME280;41875;55.806;38.082;2023-03-11T10:50:29;98492.16;;;-0.54;54.07
55990;BME280;41875;55.806;38.082;2023-03-11T10:53:08;98478.22;;;-0.41;54.82
55990;BME280;41875;55.806;38.082;2023-03-11T10:55:43;98486.41;;;-0.35;54.68
55990;BME280;41875;55.806;38.082;2023-03-11T10:58:13;98486.59;;;-0.02;53.93
55990;BME280;41875;55.806;38.082;2023-03-11T11:00:41;98477.94;;;-0.03;53.80
55990;BME280;41875;55.806;38.082;2023-03-11T11:03:17;98471.66;;;-0.23;54.16
55990;BME280;41875;55.806;38.082;2023-03-11T11:08:38;98473.09;;;0.04;53.51
55990;BME280;41875;55.806;38.082;2023-03-11T11:11:10;98464.56;;;0.02;53.80
55990;BME280;41875;55.806;38.082;2023-03-11T11:13:54;98465.41;;;-0.09;54.45
55990;BME280;41875;55.806;38.082;2023-03-11T11:16:22;98450.25;;;-0.26;54.72
55990;BME280;41875;55.806;38.082;2023-03-11T11:18:53;98455.69;;;-0.18;54.10
55990;BME280;41875;55.806;38.082;2023-03-11T11:21:27;98459.59;;;-1.06;55.56
55990;BME280;41875;55.806;38.082;2023-03-11T11:24:03;98445.56;;;-0.57;55.36
55990;BME280;41875;55.806;38.082;2023-03-11T11:26:36;98443.59;;;-0.19;54.48
55990;BME280;41875;55.806;38.082;2023-03-11T11:29:05;98444.22;;;-0.16;53.84
55990;BME280;41875;55.806;38.082;2023-03-11T11:31:35;98434.94;;;-0.42;54.83
55990;BME280;41875;55.806;38.082;2023-03-11T11:34:10;98431.16;;;-0.38;54.68
55990;BME280;41875;55.806;38.082;2023-03-11T11:36:49;98430.00;;;-0.11;53.66
55990;BME280;41875;55.806;38.082;2023-03-11T11:39:19;98422.63;;;-0.63;54.29
55990;BME280;41875;55.806;38.082;2023-03-11T11:41:48;98416.50;;;-0.28;54.70
55990;BME280;41875;55.806;38.082;2023-03-11T11:44:16;98411.69;;;0.02;53.73
55990;BME280;41875;55.806;38.082;2023-03-11T11:46:48;98412.47;;;0.25;53.35
55990;BME280;41875;55.806;38.082;2023-03-11T11:49:19;98396.06;;;-0.10;53.97
55990;BME280;41875;55.806;38.082;2023-03-11T11:51:49;98403.03;;;-0.10;53.69
55990;BME280;41875;55.806;38.082;2023-03-11T11:54:22;98392.13;;;0.07;53.55
55990;BME280;41875;55.806;38.082;2023-03-11T11:56:53;98400.88;;;-0.39;54.96
55990;BME280;41875;55.806;38.082;2023-03-11T11:59:21;98386.47;;;-0.09;53.82
55990;BME280;41875;55.806;38.082;2023-03-11T12:01:54;98360.19;;;-0.29;54.25
55990;BME280;41875;55.806;38.082;2023-03-11T12:04:26;98391.91;;;0.10;53.83
55990;BME280;41875;55.806;38.082;2023-03-11T12:07:08;98391.66;;;0.25;53.40
55990;BME280;41875;55.806;38.082;2023-03-11T12:09:42;98387.38;;;0.24;53.30
55990;BME280;41875;55.806;38.082;2023-03-11T12:12:17;98375.13;;;-0.20;53.70
55990;BME280;41875;55.806;38.082;2023-03-11T12:14:48;98360.44;;;-0.55;54.99
55990;BME280;41875;55.806;38.082;2023-03-11T12:17:20;98373.94;;;-0.38;55.09
55990;BME280;41875;55.806;38.082;2023-03-11T12:19:50;98370.75;;;-0.42;54.73
55990;BME280;41875;55.806;38.082;2023-03-11T12:25:19;98364.81;;;-0.44;55.00
55990;BME280;41875;55.806;38.082;2023-03-11T12:27:51;98369.09;;;-0.09;54.76
55990;BME280;41875;55.806;38.082;2023-03-11T12:30:22;98352.63;;;-0.43;54.78
55990;BME280;41875;55.806;38.082;2023-03-11T12:32:54;98347.78;;;-0.48;55.30
55990;BME280;41875;55.806;38.082;2023-03-11T12:35:24;98356.03;;;-0.66;55.64
55990;BME280;41875;55.806;38.082;2023-03-11T12:37:58;98346.34;;;-0.52;55.91
55990;BME280;41875;55.806;38.082;2023-03-11T12:43:55;98329.56;;;-0.59;55.38
55990;BME280;41875;55.806;38.082;2023-03-11T12:46:16;98331.81;;;-0.66;55.38
55990;BME280;41875;55.806;38.082;2023-03-11T12:48:45;98342.22;;;-0.43;54.96
55990;BME280;41875;55.806;38.082;2023-03-11T12:56:49;98340.47;;;-0.54;55.11
55990;BME280;41875;55.806;38.082;2023-03-11T12:59:37;98346.25;;;-0.39;55.32
55990;BME280;41875;55.806;38.082;2023-03-11T13:02:16;98327.06;;;-0.84;56.96
55990;BME280;41875;55.806;38.082;2023-03-11T13:04:53;98327.06;;;-0.72;55.93
55990;BME280;41875;55.806;38.082;2023-03-11T13:10:14;98315.38;;;-0.78;56.31
55990;BME280;41875;55.806;38.082;2023-03-11T13:12:42;98312.75;;;-0.78;56.03
55990;BME280;41875;55.806;38.082;2023-03-11T13:15:34;98317.75;;;-0.41;55.60
55990;BME280;41875;55.806;38.082;2023-03-11T13:18:11;98318.34;;;-0.49;54.96
55990;BME280;41875;55.806;38.082;2023-03-11T13:20:42;98308.41;;;-0.55;55.57
55990;BME280;41875;55.806;38.082;2023-03-11T13:23:19;98298.13;;;-0.45;55.27
55990;BME280;41875;55.806;38.082;2023-03-11T13:26:00;98311.09;;;-0.79;56.25
55990;BME280;41875;55.806;38.082;2023-03-11T13:28:42;98311.94;;;-0.67;56.24